sensor_id;sensor_type;location;lat;lon;timestamp;pressure;altitude;pressure_sealevel;temperature;humidity
54920;BME280;63804;53.120;8.764;2023-01-29T00:01:40;102880.41;;;5.22;45.12
54920;BME280;63804;53.120;8.764;2023-01-29T00:04:06;102880.84;;;5.35;44.83
54920;BME280;63804;53.120;8.764;2023-01-29T00:06:32;102881.44;;;5.37;44.75
54920;BME280;63804;53.120;8.764;2023-01-29T00:08:57;102883.28;;;5.37;44.87
54920;BME280;63804;53.120;8.764;2023-01-29T00:11:23;102881.97;;;5.40;44.96
54920;BME280;63804;53.120;8.764;2023-01-29T00:13:51;102878.88;;;5.31;45.02
54920;BME280;63804;53.120;8.764;2023-01-29T00:16:17;102869.69;;;5.32;44.95
54920;BME280;63804;53.120;8.764;2023-01-29T00:18:43;102873.56;;;5.36;45.06
54920;BME280;63804;53.120;8.764;2023-01-29T00:21:14;102871.56;;;5.31;44.97
54920;BME280;63804;53.120;8.764;2023-01-29T00:23:41;102875.03;;;5.27;45.00
54920;BME280;63804;53.120;8.764;2023-01-29T00:26:10;102859.94;;;5.31;44.88
54920;BME280;63804;53.120;8.764;2023-01-29T00:28:36;102849.72;;;5.38;44.91
54920;BME280;63804;53.120;8.764;2023-01-29T00:31:06;102838.69;;;5.45;44.69
54920;BME280;63804;53.120;8.764;2023-01-29T00:33:32;102835.72;;;5.46;44.54
54920;BME280;63804;53.120;8.764;2023-01-29T00:36:02;102828.41;;;5.47;44.66
54920;BME280;63804;53.120;8.764;2023-01-29T00:38:28;102822.03;;;5.31;44.68
54920;BME280;63804;53.120;8.764;2023-01-29T00:40:53;102821.44;;;5.29;44.73
54920;BME280;63804;53.120;8.764;2023-01-29T00:43:38;102815.38;;;5.16;45.04
54920;BME280;63804;53.120;8.764;2023-01-29T00:46:22;102811.94;;;5.26;44.92
54920;BME280;63804;53.120;8.764;2023-01-29T00:48:48;102821.63;;;5.22;44.95
54920;BME280;63804;53.120;8.764;2023-01-29T00:51:14;102822.94;;;5.14;45.08
54920;BME280;63804;53.120;8.764;2023-01-29T00:53:40;102830.66;;;5.28;44.78
54920;BME280;63804;53.120;8.764;2023-01-29T00:56:09;102825.63;;;5.36;44.68
54920;BME280;63804;53.120;8.764;2023-01-29T00:58:34;102835.69;;;5.41;44.55
54920;BME280;63804;53.120;8.764;2023-01-29T01:01:01;102840.25;;;5.41;44.50
54920;BME280;63804;53.120;8.764;2023-01-29T01:03:28;102840.56;;;5.39;44.47
54920;BME280;63804;53.120;8.764;2023-01-29T01:06:09;102839.75;;;5.44;44.58
54920;BME280;63804;53.120;8.764;2023-01-29T01:08:35;102840.56;;;5.39;44.48
54920;BME280;63804;53.120;8.764;2023-01-29T01:11:20;102852.31;;;5.28;44.78
54920;BME280;63804;53.120;8.764;2023-01-29T01:13:46;102852.81;;;5.25;44.91
54920;BME280;63804;53.120;8.764;2023-01-29T01:16:15;102857.31;;;5.36;44.79
54920;BME280;63804;53.120;8.764;2023-01-29T01:18:42;102860.06;;;5.41;44.35
54920;BME280;63804;53.120;8.764;2023-01-29T01:21:08;102864.94;;;5.39;44.57
54920;BME280;63804;53.120;8.764;2023-01-29T01:23:34;102855.16;;;5.38;44.54
54920;BME280;63804;53.120;8.764;2023-01-29T01:26:00;102859.03;;;5.25;44.71
54920;BME280;63804;53.120;8.764;2023-01-29T01:28:26;102863.03;;;5.17;44.94
54920;BME280;63804;53.120;8.764;2023-01-29T01:30:52;102859.88;;;5.26;44.63
54920;BME280;63804;53.120;8.764;2023-01-29T01:33:18;102853.94;;;5.29;44.89
54920;BME280;63804;53.120;8.764;2023-01-29T01:35:44;102850.34;;;5.23;44.83
54920;BME280;63804;53.120;8.764;2023-01-29T01:38:10;102852.25;;;5.23;44.95
54920;BME280;63804;53.120;8.764;2023-01-29T01:40:36;102838.13;;;5.20;45.17
54920;BME280;63804;53.120;8.764;2023-01-29T01:43:08;102834.56;;;5.15;45.25
54920;BME280;63804;53.120;8.764;2023-01-29T01:45:35;102839.28;;;5.25;45.24
54920;BME280;63804;53.120;8.764;2023-01-29T01:48:07;102841.72;;;5.26;45.15
54920;BME280;63804;53.120;8.764;2023-01-29T01:50:39;102834.13;;;5.23;45.08
54920;BME280;63804;53.120;8.764;2023-01-29T01:53:12;102840.75;;;5.32;44.91
54920;BME280;63804;53.120;8.764;2023-01-29T01:55:55;102843.50;;;5.15;45.31
54920;BME280;63804;53.120;8.764;2023-01-29T01:58:28;102841.25;;;5.07;45.43
54920;BME280;63804;53.120;8.764;2023-01-29T02:00:57;102838.66;;;5.17;45.27
54920;BME280;63804;53.120;8.764;2023-01-29T02:03:25;102843.84;;;5.19;45.00
54920;BME280;63804;53.120;8.764;2023-01-29T02:06:11;102842.31;;;5.06;45.15
54920;BME280;63804;53.120;8.764;2023-01-29T02:09:07;102845.69;;;5.18;45.14
54920;BME280;63804;53.120;8.764;2023-01-29T02:11:54;102832.66;;;5.15;45.22
54920;BME280;63804;53.120;8.764;2023-01-29T02:14:20;102826.50;;;5.20;45.07
54920;BME280;63804;53.120;8.764;2023-01-29T02:16:46;102837.63;;;5.24;44.83
54920;BME280;63804;53.120;8.764;2023-01-29T02:19:28;102844.56;;;5.36;44.64
54920;BME280;63804;53.120;8.764;2023-01-29T02:28:05;102842.75;;;5.20;44.85
54920;BME280;63804;53.120;8.764;2023-01-29T02:30:42;102841.44;;;5.23;44.91
54920;BME280;63804;53.120;8.764;2023-01-29T02:33:34;102836.53;;;5.19;44.86
54920;BME280;63804;53.120;8.764;2023-01-29T02:39:03;102837.75;;;5.34;44.60
54920;BME280;63804;53.120;8.764;2023-01-29T02:44:38;102834.38;;;5.22;44.62
54920;BME280;63804;53.120;8.764;2023-01-29T02:47:32;102833.59;;;5.26;44.68
54920;BME280;63804;53.120;8.764;2023-01-29T02:52:44;102809.88;;;5.33;44.51
54920;BME280;63804;53.120;8.764;2023-01-29T02:55:21;102805.56;;;5.32;44.56
54920;BME280;63804;53.120;8.764;2023-01-29T02:57:50;102794.94;;;5.31;44.49
54920;BME280;63804;53.120;8.764;2023-01-29T03:00:23;102781.22;;;5.15;44.77
54920;BME280;63804;53.120;8.764;2023-01-29T03:02:56;102780.72;;;5.18;44.69
54920;BME280;63804;53.120;8.764;2023-01-29T03:05:36;102775.63;;;5.22;44.67
54920;BME280;63804;53.120;8.764;2023-01-29T03:08:11;102773.75;;;5.23;44.76
54920;BME280;63804;53.120;8.764;2023-01-29T03:10:52;102767.66;;;5.10;45.01
54920;BME280;63804;53.120;8.764;2023-01-29T03:13:40;102763.69;;;5.18;44.72
54920;BME280;63804;53.120;8.764;2023-01-29T03:16:21;102757.81;;;4.99;45.18
54920;BME280;63804;53.120;8.764;2023-01-29T03:18:55;102756.22;;;5.03;45.16
54920;BME280;63804;53.120;8.764;2023-01-29T03:21:38;102746.41;;;4.97;45.16
54920;BME280;63804;53.120;8.764;2023-01-29T03:24:44;102743.75;;;5.02;45.01
54920;BME280;63804;53.120;8.764;2023-01-29T03:27:35;102742.72;;;5.08;44.81
54920;BME280;63804;53.120;8.764;2023-01-29T03:30:24;102746.25;;;5.09;44.78
54920;BME280;63804;53.120;8.764;2023-01-29T03:33:12;102732.72;;;5.09;44.94
54920;BME280;63804;53.120;8.764;2023-01-29T03:36:09;102722.72;;;5.09;45.05
54920;BME280;63804;53.120;8.764;2023-01-29T03:38:37;102722.09;;;5.02;45.14
54920;BME280;63804;53.120;8.764;2023-01-29T03:41:07;102717.34;;;5.14;44.68
54920;BME280;63804;53.120;8.764;2023-01-29T03:46:26;102709.09;;;4.99;45.00
54920;BME280;63804;53.120;8.764;2023-01-29T03:48:58;102712.09;;;5.02;45.10
54920;BME280;63804;53.120;8.764;2023-01-29T03:51:37;102706.66;;;4.97;45.03
54920;BME280;63804;53.120;8.764;2023-01-29T03:54:17;102718.84;;;5.00;45.22
54920;BME280;63804;53.120;8.764;2023-01-29T03:56:55;102712.91;;;5.03;45.21
54920;BME280;63804;53.120;8.764;2023-01-29T03:59:38;102705.34;;;5.05;44.86
54920;BME280;63804;53.120;8.764;2023-01-29T04:02:19;102720.22;;;5.02;44.86
54920;BME280;63804;53.120;8.764;2023-01-29T04:04:56;102707.53;;;5.08;44.79
54920;BME280;63804;53.120;8.764;2023-01-29T04:07:24;102706.38;;;4.99;45.11
54920;BME280;63804;53.120;8.764;2023-01-29T04:10:00;102703.59;;;4.94;45.14
54920;BME280;63804;53.120;8.764;2023-01-29T04:12:32;102702.50;;;4.90;45.32
54920;BME280;63804;53.120;8.764;2023-01-29T04:15:01;102703.69;;;4.99;44.97
54920;BME280;63804;53.120;8.764;2023-01-29T04:17:30;102706.28;;;4.89;45.32
54920;BME280;63804;53.120;8.764;2023-01-29T04:20:02;102708.00;;;5.00;44.95
54920;BME280;63804;53.120;8.764;2023-01-29T04:22:34;102703.06;;;4.92;45.15
54920;BME280;63804;53.120;8.764;2023-01-29T04:25:04;102701.91;;;4.82;45.38
54920;BME280;63804;53.120;8.764;2023-01-29T04:30:47;102699.94;;;4.78;45.44
54920;BME280;63804;53.120;8.764;2023-01-29T04:33:41;102704.03;;;4.80;45.45
54920;BME280;63804;53.120;8.764;2023-01-29T04:39:16;102699.94;;;4.78;45.50
54920;BME280;63804;53.120;8.764;2023-01-29T04:42:21;102696.78;;;4.86;45.38
54920;BME280;63804;53.120;8.764;2023-01-29T04:44:39;102694.03;;;4.81;45.63
54920;BME280;63804;53.120;8.764;2023-01-29T04:55:03;102694.28;;;4.79;45.57
54920;BME280;63804;53.120;8.764;2023-01-29T04:57:36;102704.69;;;4.93;45.36
54920;BME280;63804;53.120;8.764;2023-01-29T05:00:28;102706.91;;;4.96;45.51
54920;BME280;63804;53.120;8.764;2023-01-29T05:02:59;102709.03;;;4.94;45.31
54920;BME280;63804;53.120;8.764;2023-01-29T05:05:25;102720.94;;;4.93;45.49
54920;BME280;63804;53.120;8.764;2023-01-29T05:07:58;102720.69;;;4.94;45.39
54920;BME280;63804;53.120;8.764;2023-01-29T05:10:25;102711.81;;;4.99;45.40
54920;BME280;63804;53.120;8.764;2023-01-29T05:12:58;102712.09;;;5.02;45.38
54920;BME280;63804;53.120;8.764;2023-01-29T05:15:29;102706.69;;;5.02;45.28
54920;BME280;63804;53.120;8.764;2023-01-29T05:17:57;102702.94;;;5.09;45.35
54920;BME280;63804;53.120;8.764;2023-01-29T05:20:32;102693.38;;;4.96;45.59
54920;BME280;63804;53.120;8.764;2023-01-29T05:22:58;102685.84;;;5.03;45.61
54920;BME280;63804;53.120;8.764;2023-01-29T05:25:27;102691.34;;;5.13;45.53
54920;BME280;63804;53.120;8.764;2023-01-29T05:27:53;102706.19;;;5.06;45.59
54920;BME280;63804;53.120;8.764;2023-01-29T05:30:33;102690.84;;;5.16;45.40
54920;BME280;63804;53.120;8.764;2023-01-29T05:32:59;102692.47;;;5.17;45.33
54920;BME280;63804;53.120;8.764;2023-01-29T05:35:25;102695.75;;;5.19;45.38
54920;BME280;63804;53.120;8.764;2023-01-29T05:37:54;102689.50;;;5.19;45.53
54920;BME280;63804;53.120;8.764;2023-01-29T05:40:20;102698.44;;;5.19;45.59
54920;BME280;63804;53.120;8.764;2023-01-29T05:42:46;102698.41;;;5.14;45.82
54920;BME280;63804;53.120;8.764;2023-01-29T05:45:12;102695.22;;;5.23;45.79
54920;BME280;63804;53.120;8.764;2023-01-29T05:47:38;102690.88;;;5.22;45.96
54920;BME280;63804;53.120;8.764;2023-01-29T05:50:04;102679.91;;;5.33;45.94
54920;BME280;63804;53.120;8.764;2023-01-29T05:52:30;102673.28;;;5.19;46.67
54920;BME280;63804;53.120;8.764;2023-01-29T05:54:56;102672.88;;;5.32;46.54
54920;BME280;63804;53.120;8.764;2023-01-29T05:57:22;102681.97;;;5.26;46.97
54920;BME280;63804;53.120;8.764;2023-01-29T05:59:48;102679.28;;;5.26;47.10
54920;BME280;63804;53.120;8.764;2023-01-29T06:02:14;102670.56;;;5.19;47.39
54920;BME280;63804;53.120;8.764;2023-01-29T06:04:39;102667.31;;;5.22;47.58
54920;BME280;63804;53.120;8.764;2023-01-29T06:07:05;102671.19;;;5.31;47.72
54920;BME280;63804;53.120;8.764;2023-01-29T06:09:31;102674.25;;;5.40;47.52
54920;BME280;63804;53.120;8.764;2023-01-29T06:11:57;102679.31;;;5.31;47.80
54920;BME280;63804;53.120;8.764;2023-01-29T06:14:22;102674.25;;;5.40;47.67
54920;BME280;63804;53.120;8.764;2023-01-29T06:16:48;102674.28;;;5.45;47.49
54920;BME280;63804;53.120;8.764;2023-01-29T06:19:14;102668.91;;;5.50;47.52
54920;BME280;63804;53.120;8.764;2023-01-29T06:21:40;102662.94;;;5.48;47.45
54920;BME280;63804;53.120;8.764;2023-01-29T06:24:06;102655.63;;;5.49;47.56
54920;BME280;63804;53.120;8.764;2023-01-29T06:26:32;102663.72;;;5.44;47.76
54920;BME280;63804;53.120;8.764;2023-01-29T06:28:58;102673.44;;;5.40;47.72
54920;BME280;63804;53.120;8.764;2023-01-29T06:31:23;102683.19;;;5.41;47.81
54920;BME280;63804;53.120;8.764;2023-01-29T06:33:49;102677.00;;;5.45;47.73
54920;BME280;63804;53.120;8.764;2023-01-29T06:36:15;102666.78;;;5.52;47.80
54920;BME280;63804;53.120;8.764;2023-01-29T06:38:41;102652.69;;;5.55;47.45
54920;BME280;63804;53.120;8.764;2023-01-29T06:41:12;102652.72;;;5.61;47.44
54920;BME280;63804;53.120;8.764;2023-01-29T06:43:38;102643.97;;;5.48;47.73
54920;BME280;63804;53.120;8.764;2023-01-29T06:46:06;102656.94;;;5.41;47.91
54920;BME280;63804;53.120;8.764;2023-01-29T06:48:33;102647.22;;;5.50;47.79
54920;BME280;63804;53.120;8.764;2023-01-29T06:51:03;102650.22;;;5.54;47.44
54920;BME280;63804;53.120;8.764;2023-01-29T06:53:30;102644.84;;;5.59;47.47
54920;BME280;63804;53.120;8.764;2023-01-29T06:55:56;102642.66;;;5.51;47.67
54920;BME280;63804;53.120;8.764;2023-01-29T06:58:21;102646.34;;;5.34;48.00
54920;BME280;63804;53.120;8.764;2023-01-29T07:00:47;102638.47;;;5.33;48.32
54920;BME280;63804;53.120;8.764;2023-01-29T07:03:13;102641.19;;;5.33;48.32
54920;BME280;63804;53.120;8.764;2023-01-29T07:05:39;102649.34;;;5.38;48.29
54920;BME280;63804;53.120;8.764;2023-01-29T07:08:04;102640.69;;;5.41;48.07
54920;BME280;63804;53.120;8.764;2023-01-29T07:10:31;102634.50;;;5.46;47.93
54920;BME280;63804;53.120;8.764;2023-01-29T07:13:00;102627.22;;;5.51;47.86
54920;BME280;63804;53.120;8.764;2023-01-29T07:15:26;102636.97;;;5.52;47.92
54920;BME280;63804;53.120;8.764;2023-01-29T07:17:59;102633.16;;;5.48;47.85
54920;BME280;63804;53.120;8.764;2023-01-29T07:20:26;102639.06;;;5.45;48.45
54920;BME280;63804;53.120;8.764;2023-01-29T07:22:53;102629.84;;;5.41;47.94
54920;BME280;63804;53.120;8.764;2023-01-29T07:25:20;102636.59;;;5.38;48.27
54920;BME280;63804;53.120;8.764;2023-01-29T07:27:46;102633.66;;;5.45;47.96
54920;BME280;63804;53.120;8.764;2023-01-29T07:30:13;102635.44;;;5.29;48.08
54920;BME280;63804;53.120;8.764;2023-01-29T07:32:40;102638.88;;;5.19;48.45
54920;BME280;63804;53.120;8.764;2023-01-29T07:35:06;102621.13;;;5.34;47.76
54920;BME280;63804;53.120;8.764;2023-01-29T07:37:32;102625.47;;;5.35;47.88
54920;BME280;63804;53.120;8.764;2023-01-29T07:39:58;102633.66;;;5.45;47.68
54920;BME280;63804;53.120;8.764;2023-01-29T07:42:23;102630.66;;;5.42;47.83
54920;BME280;63804;53.120;8.764;2023-01-29T07:44:49;102628.22;;;5.40;47.85
54920;BME280;63804;53.120;8.764;2023-01-29T07:47:15;102629.88;;;5.46;47.78
54920;BME280;63804;53.120;8.764;2023-01-29T07:49:41;102618.50;;;5.44;47.94
54920;BME280;63804;53.120;8.764;2023-01-29T07:52:07;102604.34;;;5.37;47.84
54920;BME280;63804;53.120;8.764;2023-01-29T07:54:32;102606.84;;;5.44;47.76
54920;BME280;63804;53.120;8.764;2023-01-29T07:56:58;102611.31;;;5.28;48.08
54920;BME280;63804;53.120;8.764;2023-01-29T07:59:24;102614.94;;;5.38;48.06
54920;BME280;63804;53.120;8.764;2023-01-29T08:01:50;102601.69;;;5.42;48.00
54920;BME280;63804;53.120;8.764;2023-01-29T08:04:15;102616.91;;;5.48;47.74
54920;BME280;63804;53.120;8.764;2023-01-29T08:06:41;102612.03;;;5.55;47.72
54920;BME280;63804;53.120;8.764;2023-01-29T08:09:07;102620.66;;;5.47;47.75
54920;BME280;63804;53.120;8.764;2023-01-29T08:11:33;102627.22;;;5.56;47.58
54920;BME280;63804;53.120;8.764;2023-01-29T08:13:59;102613.63;;;5.46;47.65
54920;BME280;63804;53.120;8.764;2023-01-29T08:16:25;102614.72;;;5.50;47.48
54920;BME280;63804;53.120;8.764;2023-01-29T08:18:51;102609.06;;;5.52;47.54
54920;BME280;63804;53.120;8.764;2023-01-29T08:21:16;102599.22;;;5.41;47.72
54920;BME280;63804;53.120;8.764;2023-01-29T08:23:42;102596.63;;;5.56;47.40
54920;BME280;63804;53.120;8.764;2023-01-29T08:26:08;102595.84;;;5.66;47.33
54920;BME280;63804;53.120;8.764;2023-01-29T08:28:35;102590.41;;;5.61;47.26
54920;BME280;63804;53.120;8.764;2023-01-29T08:31:03;102594.78;;;5.67;47.18
54920;BME280;63804;53.120;8.764;2023-01-29T08:33:29;102589.84;;;5.59;47.43
54920;BME280;63804;53.120;8.764;2023-01-29T08:35:55;102592.03;;;5.56;47.41
54920;BME280;63804;53.120;8.764;2023-01-29T08:38:21;102606.09;;;5.59;47.46
54920;BME280;63804;53.120;8.764;2023-01-29T08:40:46;102596.41;;;5.68;47.21
54920;BME280;63804;53.120;8.764;2023-01-29T08:43:12;102609.47;;;5.81;46.80
54920;BME280;63804;53.120;8.764;2023-01-29T08:45:42;102615.16;;;5.80;46.82
54920;BME280;63804;53.120;8.764;2023-01-29T08:48:08;102610.53;;;5.75;47.05
54920;BME280;63804;53.120;8.764;2023-01-29T08:50:35;102612.16;;;5.71;47.00
54920;BME280;63804;53.120;8.764;2023-01-29T08:53:03;102600.78;;;5.79;46.86
54920;BME280;63804;53.120;8.764;2023-01-29T08:55:29;102599.72;;;5.80;46.56
54920;BME280;63804;53.120;8.764;2023-01-29T08:57:55;102594.03;;;5.87;46.43
54920;BME280;63804;53.120;8.764;2023-01-29T09:00:22;102587.81;;;5.81;46.54
54920;BME280;63804;53.120;8.764;2023-01-29T09:02:48;102584.28;;;5.86;46.37
54920;BME280;63804;53.120;8.764;2023-01-29T09:05:13;102573.41;;;5.81;46.52
54920;BME280;63804;53.120;8.764;2023-01-29T09:07:39;102572.91;;;5.94;46.16
54920;BME280;63804;53.120;8.764;2023-01-29T09:10:07;102560.22;;;5.94;45.85
54920;BME280;63804;53.120;8.764;2023-01-29T09:12:33;102567.25;;;5.96;45.97
54920;BME280;63804;53.120;8.764;2023-01-29T09:14:59;102565.38;;;6.01;45.65
54920;BME280;63804;53.120;8.764;2023-01-29T09:17:24;102555.31;;;5.97;45.90
54920;BME280;63804;53.120;8.764;2023-01-29T09:19:50;102543.41;;;5.98;45.68
54920;BME280;63804;53.120;8.764;2023-01-29T09:22:18;102545.00;;;5.93;45.71
54920;BME280;63804;53.120;8.764;2023-01-29T09:24:44;102541.97;;;5.69;45.90
54920;BME280;63804;53.120;8.764;2023-01-29T09:27:10;102552.56;;;5.76;45.82
54920;BME280;63804;53.120;8.764;2023-01-29T09:29:36;102561.72;;;5.65;46.11
54920;BME280;63804;53.120;8.764;2023-01-29T09:32:05;102548.75;;;5.77;45.86
54920;BME280;63804;53.120;8.764;2023-01-29T09:34:31;102548.69;;;5.56;46.23
54920;BME280;63804;53.120;8.764;2023-01-29T09:37:03;102542.84;;;5.90;45.45
54920;BME280;63804;53.120;8.764;2023-01-29T09:39:29;102543.41;;;5.98;45.25
54920;BME280;63804;53.120;8.764;2023-01-29T09:42:00;102540.72;;;6.03;44.99
54920;BME280;63804;53.120;8.764;2023-01-29T09:47:26;102544.47;;;5.86;45.39
54920;BME280;63804;53.120;8.764;2023-01-29T09:49:59;102544.75;;;5.95;44.99
54920;BME280;63804;53.120;8.764;2023-01-29T09:52:26;102539.06;;;6.02;44.90
54920;BME280;63804;53.120;8.764;2023-01-29T09:55:06;102545.56;;;6.01;44.76
54920;BME280;63804;53.120;8.764;2023-01-29T09:57:43;102526.91;;;6.04;44.87
54920;BME280;63804;53.120;8.764;2023-01-29T10:00:14;102539.09;;;6.12;44.42
54920;BME280;63804;53.120;8.764;2023-01-29T10:13:42;102524.22;;;6.25;44.55
54920;BME280;63804;53.120;8.764;2023-01-29T10:16:17;102510.13;;;6.23;44.50
54920;BME280;63804;53.120;8.764;2023-01-29T10:21:48;102501.41;;;6.16;44.62
54920;BME280;63804;53.120;8.764;2023-01-29T10:26:46;102494.66;;;6.34;44.33
54920;BME280;63804;53.120;8.764;2023-01-29T10:29:15;102495.19;;;6.30;44.38
54920;BME280;63804;53.120;8.764;2023-01-29T10:31:45;102503.31;;;6.20;44.61
54920;BME280;63804;53.120;8.764;2023-01-29T10:34:26;102499.53;;;6.37;44.34
54920;BME280;63804;53.120;8.764;2023-01-29T10:36:55;102503.31;;;6.30;44.50
54920;BME280;63804;53.120;8.764;2023-01-29T10:39:24;102498.97;;;6.19;44.70
54920;BME280;63804;53.120;8.764;2023-01-29T10:42:14;102500.06;;;6.39;44.24
54920;BME280;63804;53.120;8.764;2023-01-29T10:45:05;102491.41;;;6.47;43.94
54920;BME280;63804;53.120;8.764;2023-01-29T10:47:51;102485.69;;;6.54;43.85
54920;BME280;63804;53.120;8.764;2023-01-29T10:53:09;102481.63;;;6.41;44.25
54920;BME280;63804;53.120;8.764;2023-01-29T11:00:46;102467.25;;;6.15;44.76
54920;BME280;63804;53.120;8.764;2023-01-29T11:05:44;102461.84;;;6.35;44.49
54920;BME280;63804;53.120;8.764;2023-01-29T11:08:17;102443.66;;;6.51;44.13
54920;BME280;63804;53.120;8.764;2023-01-29T11:10:54;102448.81;;;6.58;44.06
54920;BME280;63804;53.120;8.764;2023-01-29T11:13:26;102445.00;;;6.59;43.98
54920;BME280;63804;53.120;8.764;2023-01-29T11:15:54;102437.66;;;6.54;44.03
54920;BME280;63804;53.120;8.764;2023-01-29T11:18:20;102432.22;;;6.59;43.82
54920;BME280;63804;53.120;8.764;2023-01-29T11:20:59;102436.59;;;6.50;44.02
54920;BME280;63804;53.120;8.764;2023-01-29T11:23:29;102431.16;;;6.60;44.04
54920;BME280;63804;53.120;8.764;2023-01-29T11:25:56;102429.56;;;6.28;44.57
54920;BME280;63804;53.120;8.764;2023-01-29T11:28:44;102427.13;;;6.37;44.10
54920;BME280;63804;53.120;8.764;2023-01-29T11:33:44;102416.78;;;6.60;43.96
54920;BME280;63804;53.120;8.764;2023-01-29T11:36:30;102409.41;;;6.71;43.60
54920;BME280;63804;53.120;8.764;2023-01-29T11:39:20;102407.00;;;6.59;43.73
54920;BME280;63804;53.120;8.764;2023-01-29T11:41:56;102404.00;;;6.71;43.70
54920;BME280;63804;53.120;8.764;2023-01-29T11:46:53;102386.09;;;6.70;43.71
54920;BME280;63804;53.120;8.764;2023-01-29T11:49:29;102385.25;;;6.74;43.85
54920;BME280;63804;53.120;8.764;2023-01-29T11:51:58;102377.38;;;6.83;43.60
54920;BME280;63804;53.120;8.764;2023-01-29T11:54:31;102376.56;;;6.77;43.58
54920;BME280;63804;53.120;8.764;2023-01-29T11:56:58;102373.09;;;6.61;43.93
54920;BME280;63804;53.120;8.764;2023-01-29T12:02:09;102359.56;;;6.51;44.15
54920;BME280;63804;53.120;8.764;2023-01-29T12:04:37;102365.44;;;6.74;43.94
54920;BME280;63804;53.120;8.764;2023-01-29T12:07:11;102367.03;;;6.85;43.70
54920;BME280;63804;53.120;8.764;2023-01-29T12:09:37;102352.44;;;6.65;44.14
54920;BME280;63804;53.120;8.764;2023-01-29T12:15:04;102337.25;;;6.75;44.33
54920;BME280;63804;53.120;8.764;2023-01-29T12:17:37;102330.78;;;6.55;44.60
54920;BME280;63804;53.120;8.764;2023-01-29T12:20:12;102326.44;;;6.54;44.61
54920;BME280;63804;53.120;8.764;2023-01-29T12:22:46;102327.50;;;6.63;44.36
54920;BME280;63804;53.120;8.764;2023-01-29T12:25:22;102318.59;;;6.47;44.66
54920;BME280;63804;53.120;8.764;2023-01-29T12:28:12;102319.94;;;6.55;44.42
54920;BME280;63804;53.120;8.764;2023-01-29T12:33:42;102320.50;;;6.42;44.81
54920;BME280;63804;53.120;8.764;2023-01-29T12:36:31;102306.91;;;6.52;44.48
54920;BME280;63804;53.120;8.764;2023-01-29T12:38:59;102308.22;;;6.65;44.25
54920;BME280;63804;53.120;8.764;2023-01-29T12:41:46;102299.28;;;6.64;44.37
54920;BME280;63804;53.120;8.764;2023-01-29T12:44:22;102297.63;;;6.68;44.49
54920;BME280;63804;53.120;8.764;2023-01-29T12:46:55;102291.16;;;6.64;44.47
54920;BME280;63804;53.120;8.764;2023-01-29T12:49:30;102290.03;;;6.71;44.45
54920;BME280;63804;53.120;8.764;2023-01-29T12:54:43;102288.47;;;6.49;44.83
54920;BME280;63804;53.120;8.764;2023-01-29T12:57:36;102280.28;;;6.59;44.58
54920;BME280;63804;53.120;8.764;2023-01-29T13:00:32;102264.59;;;6.56;44.52
54920;BME280;63804;53.120;8.764;2023-01-29T13:03:17;102264.56;;;6.61;44.52
54920;BME280;63804;53.120;8.764;2023-01-29T13:05:49;102259.66;;;6.68;44.28
54920;BME280;63804;53.120;8.764;2023-01-29T13:08:34;102253.72;;;6.61;44.41
54920;BME280;63804;53.120;8.764;2023-01-29T13:11:05;102250.16;;;6.71;44.37
54920;BME280;63804;53.120;8.764;2023-01-29T13:13:37;102247.59;;;6.90;43.89
54920;BME280;63804;53.120;8.764;2023-01-29T13:16:11;102239.28;;;6.71;44.43
54920;BME280;63804;53.120;8.764;2023-01-29T13:18:52;102237.28;;;6.87;44.07
54920;BME280;63804;53.120;8.764;2023-01-29T13:21:23;102228.69;;;6.75;44.44
54920;BME280;63804;53.120;8.764;2023-01-29T13:23:52;102229.38;;;6.91;43.97
54920;BME280;63804;53.120;8.764;2023-01-29T13:26:20;102225.41;;;6.78;44.31
54920;BME280;63804;53.120;8.764;2023-01-29T13:28:47;102224.84;;;6.81;44.21
54920;BME280;63804;53.120;8.764;2023-01-29T13:31:26;102224.97;;;6.55;44.85
54920;BME280;63804;53.120;8.764;2023-01-29T13:33:58;102219.13;;;6.27;45.65
54920;BME280;63804;53.120;8.764;2023-01-29T13:36:27;102220.06;;;6.62;44.78
54920;BME280;63804;53.120;8.764;2023-01-29T13:39:03;102211.81;;;6.83;44.89
54920;BME280;63804;53.120;8.764;2023-01-29T13:41:32;102209.09;;;6.83;44.56
54920;BME280;63804;53.120;8.764;2023-01-29T13:43:59;102208.63;;;6.71;44.87
54920;BME280;63804;53.120;8.764;2023-01-29T13:46:25;102202.41;;;6.65;44.87
54920;BME280;63804;53.120;8.764;2023-01-29T13:48:51;102193.47;;;6.64;45.05
54920;BME280;63804;53.120;8.764;2023-01-29T13:51:21;102201.91;;;6.63;45.14
54920;BME280;63804;53.120;8.764;2023-01-29T13:54:01;102200.53;;;6.60;45.02
54920;BME280;63804;53.120;8.764;2023-01-29T13:56:44;102192.41;;;6.60;45.28
54920;BME280;63804;53.120;8.764;2023-01-29T14:02:27;102190.31;;;6.47;45.78
54920;BME280;63804;53.120;8.764;2023-01-29T14:10:28;102180.09;;;6.28;45.93
54920;BME280;63804;53.120;8.764;2023-01-29T14:18:33;102170.31;;;6.27;46.09
54920;BME280;63804;53.120;8.764;2023-01-29T14:21:03;102160.03;;;6.19;46.51
54920;BME280;63804;53.120;8.764;2023-01-29T14:23:40;102168.09;;;6.40;45.84
54920;BME280;63804;53.120;8.764;2023-01-29T14:26:21;102162.69;;;6.40;45.83
54920;BME280;63804;53.120;8.764;2023-01-29T14:34:26;102166.56;;;6.18;46.26
54920;BME280;63804;53.120;8.764;2023-01-29T14:36:59;102160.56;;;6.26;46.17
54920;BME280;63804;53.120;8.764;2023-01-29T14:39:50;102159.00;;;6.15;46.37
54920;BME280;63804;53.120;8.764;2023-01-29T14:42:32;102155.19;;;6.21;46.08
54920;BME280;63804;53.120;8.764;2023-01-29T14:45:07;102146.50;;;6.14;46.11
54920;BME280;63804;53.120;8.764;2023-01-29T14:52:50;102140.50;;;6.22;46.00
54920;BME280;63804;53.120;8.764;2023-01-29T14:55:34;102140.88;;;6.05;46.43
54920;BME280;63804;53.120;8.764;2023-01-29T14:58:02;102135.41;;;6.10;46.38
54920;BME280;63804;53.120;8.764;2023-01-29T15:00:32;102131.00;;;6.30;45.89
54920;BME280;63804;53.120;8.764;2023-01-29T15:03:00;102123.44;;;6.22;46.03
54920;BME280;63804;53.120;8.764;2023-01-29T15:05:31;102130.53;;;6.18;46.48